Time;durP1;ratioP1;P1;durP2;ratioP2;P2;SDS_P1;SDS_P2;PMS_P1;PMS_P2;Temp;Humidity;BMP_temperature;BMP_pressure;BME280_temperature;BME280_humidity;BME280_pressure;Samples;Min_cycle;Max_cycle;Signal;HPM_P1;HPM_P2
2021/12/09 00:01:23;;;;;;;137.13;58.10;;;;;;;;;;5095950;28;20492;-72
2021/12/09 00:03:51;;;;;;;143.10;58.20;;;;;;;;;;5096215;28;20747;-72
2021/12/09 00:06:22;;;;;;;135.82;60.17;;;;;;;;;;5096529;28;20451;-72
2021/12/09 00:08:49;;;;;;;132.83;57.70;;;;;;;;;;5095806;28;20205;-72
2021/12/09 00:11:16;;;;;;;149.57;59.30;;;;;;;;;;5097177;28;20459;-72
2021/12/09 00:13:43;;;;;;;127.53;54.70;;;;;;;;;;5095207;28;20498;-71
2021/12/09 00:16:10;;;;;;;135.93;58.47;;;;;;;;;;5095345;28;21026;-72
2021/12/09 00:18:38;;;;;;;138.20;59.27;;;;;;;;;;5096255;28;21028;-72
2021/12/09 00:21:05;;;;;;;129.30;55.23;;;;;;;;;;5098850;28;20731;-72
2021/12/09 00:23:32;;;;;;;123.07;54.67;;;;;;;;;;5100301;28;20632;-72
2021/12/09 00:26:00;;;;;;;142.30;61.63;;;;;;;;;;5099080;28;20530;-72
2021/12/09 00:28:26;;;;;;;140.50;58.57;;;;;;;;;;5099245;28;20467;-72
2021/12/09 00:30:54;;;;;;;149.07;61.93;;;;;;;;;;5099980;28;20719;-73
2021/12/09 00:33:21;;;;;;;140.55;62.33;;;;;;;;;;5098756;28;20478;-72
2021/12/09 00:35:55;;;;;;;143.63;63.30;;;;;;;;;;5098692;28;20362;-72
2021/12/09 00:38:35;;;;;;;121.50;55.70;;;;;;;;;;5099879;28;20485;-72
2021/12/09 00:41:06;;;;;;;133.33;58.67;;;;;;;;;;5098889;28;20890;-72
2021/12/09 00:43:34;;;;;;;124.90;57.50;;;;;;;;;;5098937;28;20914;-72
2021/12/09 00:46:01;;;;;;;118.40;53.60;;;;;;;;;;5098789;28;20449;-72
2021/12/09 00:48:28;;;;;;;132.50;58.25;;;;;;;;;;5099267;28;20466;-72
2021/12/09 00:50:56;;;;;;;127.93;58.53;;;;;;;;;;5099526;28;20228;-72
2021/12/09 00:53:24;;;;;;;134.87;58.97;;;;;;;;;;5098536;28;20488;-72
2021/12/09 00:55:51;;;;;;;138.77;60.77;;;;;;;;;;5098334;28;21133;-71
2021/12/09 00:58:19;;;;;;;130.70;56.60;;;;;;;;;;5099250;28;20519;-72
2021/12/09 01:00:46;;;;;;;141.37;57.97;;;;;;;;;;5098508;28;20476;-72
2021/12/09 01:03:13;;;;;;;150.60;65.03;;;;;;;;;;5099371;28;20448;-72
2021/12/09 01:05:40;;;;;;;144.53;61.30;;;;;;;;;;5099030;28;20551;-72
2021/12/09 01:08:07;;;;;;;163.30;63.53;;;;;;;;;;5099432;28;20466;-72
2021/12/09 01:10:35;;;;;;;147.50;61.20;;;;;;;;;;5098724;28;20727;-71
2021/12/09 01:13:04;;;;;;;150.83;60.27;;;;;;;;;;5099224;28;20496;-72
2021/12/09 01:15:31;;;;;;;161.83;63.93;;;;;;;;;;5098631;28;20451;-72
2021/12/09 01:17:58;;;;;;;136.23;58.70;;;;;;;;;;5098690;28;20492;-72
2021/12/09 01:20:27;;;;;;;146.70;63.13;;;;;;;;;;5098443;28;20913;-72
2021/12/09 01:22:54;;;;;;;151.47;61.93;;;;;;;;;;5097914;28;20887;-72
2021/12/09 01:25:22;;;;;;;140.33;59.23;;;;;;;;;;5097776;28;20455;-72
2021/12/09 01:27:51;;;;;;;151.03;60.70;;;;;;;;;;5098740;28;20456;-72
2021/12/09 01:30:20;;;;;;;146.30;59.70;;;;;;;;;;5097752;28;20448;-72
2021/12/09 01:32:50;;;;;;;123.10;54.57;;;;;;;;;;5098311;28;20483;-71
2021/12/09 01:35:18;;;;;;;152.90;62.13;;;;;;;;;;5098476;28;20560;-72
2021/12/09 01:37:46;;;;;;;144.37;61.63;;;;;;;;;;5098577;28;20563;-72
2021/12/09 01:40:13;;;;;;;131.27;57.60;;;;;;;;;;5098209;28;20937;-72
2021/12/09 01:42:41;;;;;;;125.73;55.63;;;;;;;;;;5098493;28;20499;-72
2021/12/09 01:45:09;;;;;;;126.90;55.87;;;;;;;;;;5098141;28;20482;-72
2021/12/09 01:47:36;;;;;;;132.13;59.20;;;;;;;;;;5098213;28;20455;-72
2021/12/09 01:50:04;;;;;;;148.87;60.70;;;;;;;;;;5097951;28;20451;-72
2021/12/09 01:52:31;;;;;;;139.10;60.97;;;;;;;;;;5097627;28;20448;-72
2021/12/09 01:54:58;;;;;;;140.43;59.33;;;;;;;;;;5098682;28;20538;-72
2021/12/09 01:57:25;;;;;;;137.30;59.30;;;;;;;;;;5098836;28;20474;-72
2021/12/09 01:59:52;;;;;;;127.43;54.50;;;;;;;;;;5098080;28;20465;-72
2021/12/09 02:02:20;;;;;;;127.07;59.87;;;;;;;;;;5098516;28;20478;-72
2021/12/09 02:04:47;;;;;;;144.77;60.43;;;;;;;;;;5098105;28;20470;-73
2021/12/09 02:07:14;;;;;;;128.03;55.60;;;;;;;;;;5098278;28;20459;-72
2021/12/09 02:09:41;;;;;;;124.50;54.60;;;;;;;;;;5097250;28;20853;-72
2021/12/09 02:12:08;;;;;;;128.03;55.57;;;;;;;;;;5097442;28;20543;-72
2021/12/09 02:14:37;;;;;;;132.33;59.37;;;;;;;;;;5097235;28;20633;-72
2021/12/09 02:17:04;;;;;;;142.40;57.63;;;;;;;;;;5097293;28;20454;-72
2021/12/09 02:19:32;;;;;;;146.53;61.50;;;;;;;;;;5097175;28;20467;-72
2021/12/09 02:22:01;;;;;;;128.83;59.43;;;;;;;;;;5097189;28;20448;-72
2021/12/09 02:24:30;;;;;;;134.37;61.87;;;;;;;;;;5096664;28;20463;-72
2021/12/09 02:26:58;;;;;;;142.03;58.93;;;;;;;;;;5096952;28;20440;-72
2021/12/09 02:29:26;;;;;;;113.90;50.27;;;;;;;;;;5096935;28;20444;-72
2021/12/09 02:31:56;;;;;;;136.00;57.50;;;;;;;;;;5096937;28;20482;-72
2021/12/09 02:34:23;;;;;;;127.07;52.67;;;;;;;;;;5097239;28;20494;-72
2021/12/09 02:36:51;;;;;;;131.33;54.30;;;;;;;;;;5097638;28;20454;-73
2021/12/09 02:39:19;;;;;;;141.30;54.53;;;;;;;;;;5097160;28;20493;-72
2021/12/09 02:41:47;;;;;;;124.17;55.67;;;;;;;;;;5096752;28;20448;-72
2021/12/09 02:44:17;;;;;;;132.03;57.07;;;;;;;;;;5096915;28;20440;-72
2021/12/09 02:46:47;;;;;;;122.67;54.80;;;;;;;;;;5096297;28;20443;-72
2021/12/09 02:49:16;;;;;;;126.67;54.77;;;;;;;;;;5097814;28;20475;-72
2021/12/09 02:51:44;;;;;;;135.07;60.67;;;;;;;;;;5097761;28;20461;-72
2021/12/09 02:54:12;;;;;;;125.27;55.10;;;;;;;;;;5096958;28;20498;-72
2021/12/09 02:56:40;;;;;;;126.10;56.67;;;;;;;;;;5097955;28;20439;-72
2021/12/09 02:59:08;;;;;;;121.45;57.50;;;;;;;;;;5097428;28;20474;-72
2021/12/09 03:01:37;;;;;;;137.83;58.33;;;;;;;;;;5097456;28;20562;-72
2021/12/09 03:04:05;;;;;;;131.80;56.10;;;;;;;;;;5097552;28;20470;-72
2021/12/09 03:06:34;;;;;;;129.27;56.57;;;;;;;;;;5097088;28;20444;-72
2021/12/09 03:09:02;;;;;;;125.40;58.93;;;;;;;;;;5096780;28;20459;-72
2021/12/09 03:11:29;;;;;;;120.32;53.50;;;;;;;;;;5096846;28;20436;-73
2021/12/09 03:13:58;;;;;;;127.70;58.10;;;;;;;;;;5096850;28;20221;-72
2021/12/09 03:16:25;;;;;;;135.20;56.97;;;;;;;;;;5096657;28;20804;-72
2021/12/09 03:18:53;;;;;;;125.90;57.30;;;;;;;;;;5097401;28;20448;-72
2021/12/09 03:21:24;;;;;;;127.87;58.13;;;;;;;;;;5096956;28;20704;-72
2021/12/09 03:23:51;;;;;;;120.13;55.67;;;;;;;;;;5096572;28;20462;-72
2021/12/09 03:26:20;;;;;;;130.23;56.40;;;;;;;;;;5096256;28;20954;-72
2021/12/09 03:28:47;;;;;;;125.20;53.80;;;;;;;;;;5096291;28;20479;-72
2021/12/09 03:31:15;;;;;;;119.60;53.33;;;;;;;;;;5097161;28;20447;-72
2021/12/09 03:33:43;;;;;;;130.13;56.20;;;;;;;;;;5096392;28;20490;-72
2021/12/09 03:36:16;;;;;;;128.47;59.50;;;;;;;;;;5096231;28;20460;-72
2021/12/09 03:38:43;;;;;;;129.63;56.97;;;;;;;;;;5097197;28;20874;-72
2021/12/09 03:41:10;;;;;;;130.40;56.60;;;;;;;;;;5097141;28;20520;-72
2021/12/09 03:43:37;;;;;;;119.57;54.13;;;;;;;;;;5096154;28;20462;-72
2021/12/09 03:46:05;;;;;;;126.40;54.87;;;;;;;;;;5096520;28;20517;-72
2021/12/09 03:48:35;;;;;;;130.05;58.67;;;;;;;;;;5096406;28;20501;-72
2021/12/09 03:51:02;;;;;;;145.90;61.70;;;;;;;;;;5097650;28;20205;-73
2021/12/09 03:53:29;;;;;;;129.70;57.17;;;;;;;;;;5097155;28;20574;-73
2021/12/09 03:56:01;;;;;;;121.20;53.70;;;;;;;;;;5098977;28;20944;-73
2021/12/09 03:58:29;;;;;;;137.00;58.37;;;;;;;;;;5100334;28;20206;-72
2021/12/09 04:00:56;;;;;;;127.80;54.90;;;;;;;;;;5100083;28;20447;-73
2021/12/09 04:03:24;;;;;;;116.50;50.80;;;;;;;;;;5100383;28;20636;-72
2021/12/09 04:05:52;;;;;;;129.20;59.00;;;;;;;;;;5100220;28;20922;-72
2021/12/09 04:08:21;;;;;;;138.37;58.43;;;;;;;;;;5100240;28;20455;-72
2021/12/09 04:10:51;;;;;;;132.30;60.53;;;;;;;;;;5100941;28;20447;-72
2021/12/09 04:13:21;;;;;;;128.47;56.90;;;;;;;;;;5101452;28;20487;-72
2021/12/09 04:15:48;;;;;;;132.53;55.17;;;;;;;;;;5100555;28;20521;-72
2021/12/09 04:18:21;;;;;;;144.40;60.97;;;;;;;;;;5101484;28;20479;-72
2021/12/09 04:20:49;;;;;;;129.47;57.37;;;;;;;;;;5100970;28;20443;-72
2021/12/09 04:23:16;;;;;;;140.43;57.10;;;;;;;;;;5101233;28;20466;-72
2021/12/09 04:25:43;;;;;;;143.30;60.77;;;;;;;;;;5100878;28;20481;-72
2021/12/09 04:28:10;;;;;;;136.87;56.90;;;;;;;;;;5100508;28;20450;-72
2021/12/09 04:30:37;;;;;;;122.30;55.93;;;;;;;;;;5101521;28;20542;-72
2021/12/09 04:33:04;;;;;;;128.60;58.07;;;;;;;;;;5100880;28;20487;-72
2021/12/09 04:35:31;;;;;;;132.35;62.35;;;;;;;;;;5100995;28;20784;-72
2021/12/09 04:37:58;;;;;;;148.23;62.10;;;;;;;;;;5100147;28;20206;-72
2021/12/09 04:40:44;;;;;;;143.77;61.07;;;;;;;;;;5099685;28;20859;-72
2021/12/09 04:43:11;;;;;;;136.33;58.03;;;;;;;;;;5099280;28;20782;-72
2021/12/09 04:45:40;;;;;;;126.13;58.43;;;;;;;;;;5098653;28;20447;-72
2021/12/09 04:48:10;;;;;;;131.70;60.87;;;;;;;;;;5099492;28;20452;-72
2021/12/09 04:50:38;;;;;;;140.70;61.40;;;;;;;;;;5100243;28;20436;-72
2021/12/09 04:53:06;;;;;;;136.47;60.47;;;;;;;;;;5098935;28;20479;-72
2021/12/09 04:55:34;;;;;;;145.13;61.93;;;;;;;;;;5098138;28;20450;-72
2021/12/09 04:58:01;;;;;;;137.63;59.07;;;;;;;;;;5098577;28;20452;-72
2021/12/09 05:00:32;;;;;;;142.82;59.13;;;;;;;;;;5098426;28;20459;-72
2021/12/09 05:03:04;;;;;;;137.67;61.93;;;;;;;;;;5098395;28;20275;-72
2021/12/09 05:05:36;;;;;;;121.20;53.33;;;;;;;;;;5098628;28;20452;-72
2021/12/09 05:08:05;;;;;;;134.90;56.77;;;;;;;;;;5098307;28;20235;-72
2021/12/09 05:10:36;;;;;;;157.50;63.23;;;;;;;;;;5098562;28;20532;-72
2021/12/09 05:13:04;;;;;;;150.30;63.27;;;;;;;;;;5098177;28;20506;-73
2021/12/09 05:15:32;;;;;;;148.27;58.97;;;;;;;;;;5098142;28;20505;-72
2021/12/09 05:18:05;;;;;;;129.43;58.33;;;;;;;;;;5099255;28;20530;-72
2021/12/09 05:20:35;;;;;;;137.77;60.27;;;;;;;;;;5097936;28;20452;-72
2021/12/09 05:23:03;;;;;;;145.27;63.73;;;;;;;;;;5099060;28;20552;-71
2021/12/09 05:25:30;;;;;;;149.02;60.80;;;;;;;;;;5098756;28;20450;-73
2021/12/09 05:27:58;;;;;;;133.10;59.37;;;;;;;;;;5098239;28;20270;-72
2021/12/09 05:32:07;;;;;;;141.90;60.93;;;;;;;;;;5098450;28;20733;-72
2021/12/09 05:33:25;;;;;;;136.23;57.60;;;;;;;;;;5098753;28;20509;-73
2021/12/09 05:35:52;;;;;;;135.37;57.30;;;;;;;;;;5098717;28;20879;-71
2021/12/09 05:38:19;;;;;;;131.73;58.83;;;;;;;;;;5099285;28;20452;-71
2021/12/09 05:41:04;;;;;;;147.30;63.00;;;;;;;;;;5098082;28;20986;-72
2021/12/09 05:43:34;;;;;;;138.00;60.10;;;;;;;;;;5098654;28;20453;-72
2021/12/09 05:46:07;;;;;;;152.97;61.10;;;;;;;;;;5098487;28;20517;-72
2021/12/09 05:48:36;;;;;;;141.37;60.23;;;;;;;;;;5097230;28;20744;-72
2021/12/09 05:51:02;;;;;;;131.00;56.10;;;;;;;;;;5097936;28;20475;-72
2021/12/09 05:53:36;;;;;;;139.00;61.20;;;;;;;;;;5098795;28;20480;-72
2021/12/09 05:56:03;;;;;;;132.80;58.47;;;;;;;;;;5097707;28;20448;-72
2021/12/09 05:58:30;;;;;;;143.00;60.70;;;;;;;;;;5097161;28;20491;-73
2021/12/09 06:00:57;;;;;;;138.57;59.67;;;;;;;;;;5096449;28;20469;-72
2021/12/09 06:03:25;;;;;;;132.63;59.57;;;;;;;;;;5096358;28;20460;-72
2021/12/09 06:05:53;;;;;;;133.17;57.60;;;;;;;;;;5096687;28;20456;-72
2021/12/09 06:08:20;;;;;;;122.73;54.70;;;;;;;;;;5094662;28;20455;-72
2021/12/09 06:10:48;;;;;;;143.47;59.87;;;;;;;;;;5096745;28;20490;-72
2021/12/09 06:13:16;;;;;;;136.47;60.60;;;;;;;;;;5095827;28;20491;-72
2021/12/09 06:15:43;;;;;;;144.30;59.57;;;;;;;;;;5096016;28;20436;-71
2021/12/09 06:18:11;;;;;;;139.43;61.80;;;;;;;;;;5097327;28;20515;-72
2021/12/09 06:20:38;;;;;;;143.30;63.05;;;;;;;;;;5095936;28;20436;-72
2021/12/09 06:23:05;;;;;;;144.37;60.77;;;;;;;;;;5095991;28;20245;-72
2021/12/09 06:25:32;;;;;;;143.63;59.17;;;;;;;;;;5096623;28;20447;-72
2021/12/09 06:27:59;;;;;;;122.50;55.87;;;;;;;;;;5096051;28;20447;-72
2021/12/09 06:30:26;;;;;;;137.50;60.53;;;;;;;;;;5096186;28;20452;-72
2021/12/09 06:32:53;;;;;;;121.77;55.00;;;;;;;;;;5095527;28;20471;-72
2021/12/09 06:35:21;;;;;;;154.23;64.53;;;;;;;;;;5094035;28;21104;-72
2021/12/09 06:37:48;;;;;;;143.07;59.37;;;;;;;;;;5095492;28;20611;-72
2021/12/09 06:40:17;;;;;;;133.40;59.00;;;;;;;;;;5093968;28;20855;-72
2021/12/09 06:42:44;;;;;;;135.93;61.43;;;;;;;;;;5094985;28;20487;-72
2021/12/09 06:45:16;;;;;;;142.13;64.03;;;;;;;;;;5096114;28;20459;-73
2021/12/09 06:47:45;;;;;;;144.00;61.10;;;;;;;;;;5093819;28;20710;-72
2021/12/09 06:50:13;;;;;;;153.27;63.87;;;;;;;;;;5093626;27;20451;-72
2021/12/09 06:52:45;;;;;;;127.03;57.78;;;;;;;;;;5093964;27;21038;-72
2021/12/09 06:55:14;;;;;;;142.83;60.57;;;;;;;;;;5087427;28;20233;-72
2021/12/09 06:57:42;;;;;;;141.70;60.47;;;;;;;;;;5094653;28;20470;-72
2021/12/09 07:00:10;;;;;;;146.77;60.50;;;;;;;;;;5095126;28;20936;-72
2021/12/09 07:02:37;;;;;;;133.00;59.63;;;;;;;;;;5093846;28;20439;-72
2021/12/09 07:05:04;;;;;;;154.20;65.83;;;;;;;;;;5094821;28;20472;-72
2021/12/09 07:07:31;;;;;;;150.98;62.20;;;;;;;;;;5094905;28;20715;-72
2021/12/09 07:09:59;;;;;;;144.80;62.30;;;;;;;;;;5111179;27;20201;-72
2021/12/09 07:12:26;;;;;;;148.40;63.37;;;;;;;;;;5115963;27;20513;-72
2021/12/09 07:14:53;;;;;;;133.17;58.27;;;;;;;;;;5115236;27;20493;-71
2021/12/09 07:17:24;;;;;;;165.87;67.97;;;;;;;;;;5113321;27;20510;-72
2021/12/09 07:19:51;;;;;;;152.35;59.33;;;;;;;;;;5095649;28;20454;-71
2021/12/09 07:22:18;;;;;;;146.23;63.87;;;;;;;;;;5094191;28;20205;-72
2021/12/09 07:24:45;;;;;;;141.70;58.90;;;;;;;;;;5095277;28;20459;-71
2021/12/09 07:27:13;;;;;;;154.77;68.30;;;;;;;;;;5094728;28;20440;-72
2021/12/09 07:29:40;;;;;;;174.03;76.70;;;;;;;;;;5093733;28;20490;-72
2021/12/09 07:32:11;;;;;;;176.88;65.47;;;;;;;;;;5094142;28;20444;-71
2021/12/09 07:34:38;;;;;;;160.97;64.93;;;;;;;;;;5094835;28;20728;-72
2021/12/09 07:37:05;;;;;;;158.40;67.07;;;;;;;;;;5094782;28;20444;-72
2021/12/09 07:42:29;;;;;;;178.17;72.57;;;;;;;;;;5095120;28;20221;-74
2021/12/09 07:44:56;;;;;;;187.30;69.77;;;;;;;;;;5094663;28;20464;-72
2021/12/09 07:47:23;;;;;;;170.60;63.73;;;;;;;;;;5094312;28;20605;-71
2021/12/09 07:49:50;;;;;;;169.53;64.10;;;;;;;;;;5094666;28;20521;-71
2021/12/09 07:52:17;;;;;;;172.77;63.22;;;;;;;;;;5094533;28;20452;-72
2021/12/09 07:54:44;;;;;;;203.13;74.28;;;;;;;;;;5095558;28;20267;-71
2021/12/09 07:57:11;;;;;;;196.83;73.73;;;;;;;;;;5095377;28;20210;-71
2021/12/09 07:59:40;;;;;;;220.02;76.13;;;;;;;;;;5095495;28;20860;-72
2021/12/09 08:02:07;;;;;;;214.20;75.53;;;;;;;;;;5095881;28;20235;-72
2021/12/09 08:04:34;;;;;;;193.17;70.37;;;;;;;;;;5108604;27;20451;-72
2021/12/09 08:07:03;;;;;;;330.45;88.97;;;;;;;;;;5095914;28;20448;-72
2021/12/09 08:09:35;;;;;;;306.38;82.65;;;;;;;;;;5094850;28;20581;-73
2021/12/09 08:12:02;;;;;;;187.38;69.30;;;;;;;;;;5095256;28;20304;-73
2021/12/09 08:14:33;;;;;;;252.25;76.40;;;;;;;;;;5094943;28;20321;-72
2021/12/09 08:17:09;;;;;;;200.17;70.93;;;;;;;;;;5095322;28;20208;-72
2021/12/09 08:19:36;;;;;;;228.98;76.63;;;;;;;;;;5094704;28;20525;-72
2021/12/09 08:22:03;;;;;;;257.88;79.72;;;;;;;;;;5095395;28;20198;-72
2021/12/09 08:24:33;;;;;;;198.10;72.97;;;;;;;;;;5093766;28;20201;-72
2021/12/09 08:27:00;;;;;;;267.75;78.57;;;;;;;;;;5094615;28;20561;-72
2021/12/09 08:29:28;;;;;;;243.73;80.43;;;;;;;;;;5093940;28;20205;-72
2021/12/09 08:31:55;;;;;;;334.48;83.20;;;;;;;;;;5095079;28;20447;-73
2021/12/09 08:34:23;;;;;;;191.80;71.53;;;;;;;;;;5095954;28;20233;-72
2021/12/09 08:36:50;;;;;;;171.90;67.60;;;;;;;;;;5092562;28;20535;-72
2021/12/09 08:39:17;;;;;;;183.80;71.93;;;;;;;;;;5093166;28;20451;-72
2021/12/09 08:41:47;;;;;;;188.52;70.60;;;;;;;;;;5097015;28;20263;-72
2021/12/09 08:44:15;;;;;;;202.27;73.68;;;;;;;;;;5096416;28;20209;-72
2021/12/09 08:46:42;;;;;;;204.63;73.65;;;;;;;;;;5099846;28;20201;-71
2021/12/09 08:49:10;;;;;;;206.05;74.88;;;;;;;;;;5106951;27;20189;-71
2021/12/09 08:51:38;;;;;;;204.77;72.88;;;;;;;;;;5109731;28;20606;-72
2021/12/09 08:54:06;;;;;;;205.82;77.10;;;;;;;;;;5112798;27;20267;-72
2021/12/09 08:56:34;;;;;;;192.73;74.03;;;;;;;;;;5117688;27;20357;-72
2021/12/09 08:59:04;;;;;;;213.00;80.32;;;;;;;;;;5119031;27;20981;-72
2021/12/09 09:01:36;;;;;;;194.07;72.27;;;;;;;;;;5108849;27;20231;-72
2021/12/09 09:04:08;;;;;;;207.00;80.47;;;;;;;;;;5097616;28;20451;-73
2021/12/09 09:06:59;;;;;;;203.43;71.20;;;;;;;;;;5097370;28;20435;-72
2021/12/09 09:09:33;;;;;;;207.55;72.40;;;;;;;;;;5096731;28;20458;-73
2021/12/09 09:12:01;;;;;;;179.33;71.10;;;;;;;;;;5098394;28;20343;-72
2021/12/09 09:14:31;;;;;;;205.07;75.97;;;;;;;;;;5099164;28;20483;-72
2021/12/09 09:17:07;;;;;;;197.03;81.23;;;;;;;;;;5115626;27;20785;-73
2021/12/09 09:19:38;;;;;;;210.00;79.07;;;;;;;;;;5118009;27;20864;-72
2021/12/09 09:22:06;;;;;;;222.60;80.63;;;;;;;;;;5094814;28;20452;-71
2021/12/09 09:24:36;;;;;;;313.55;89.32;;;;;;;;;;5097082;28;20455;-73
2021/12/09 09:27:03;;;;;;;214.30;80.23;;;;;;;;;;5098372;28;20216;-73
2021/12/09 09:29:32;;;;;;;222.73;84.77;;;;;;;;;;5099171;28;20485;-72
2021/12/09 09:32:00;;;;;;;337.75;87.00;;;;;;;;;;5100859;28;20454;-71
2021/12/09 09:34:27;;;;;;;206.03;72.17;;;;;;;;;;5098887;28;20279;-72
2021/12/09 09:36:55;;;;;;;263.58;80.80;;;;;;;;;;5096478;28;20779;-71
2021/12/09 09:39:28;;;;;;;207.00;73.37;;;;;;;;;;5096436;28;20216;-71
2021/12/09 09:42:01;;;;;;;293.85;89.93;;;;;;;;;;5095398;27;20472;-70
2021/12/09 09:44:34;;;;;;;350.40;89.40;;;;;;;;;;5099368;27;20263;-70
2021/12/09 09:47:01;;;;;;;212.30;74.40;;;;;;;;;;5098460;27;20241;-70
2021/12/09 09:49:30;;;;;;;188.90;75.00;;;;;;;;;;5097566;27;20626;-70
2021/12/09 09:51:58;;;;;;;183.67;77.70;;;;;;;;;;5098479;27;20444;-71
2021/12/09 09:54:45;;;;;;;176.53;72.70;;;;;;;;;;5099625;28;20487;-71
2021/12/09 09:57:31;;;;;;;186.50;72.07;;;;;;;;;;5109627;27;20443;-70
2021/12/09 10:00:29;;;;;;;183.87;71.50;;;;;;;;;;5097892;28;20452;-72
2021/12/09 10:03:18;;;;;;;167.57;66.90;;;;;;;;;;5094883;28;20452;-71
2021/12/09 10:05:49;;;;;;;171.57;72.13;;;;;;;;;;5100747;28;20892;-71
2021/12/09 10:08:20;;;;;;;159.03;67.40;;;;;;;;;;5097952;28;20471;-70
2021/12/09 10:10:51;;;;;;;165.67;65.70;;;;;;;;;;5097604;28;21085;-71
2021/12/09 10:13:21;;;;;;;194.17;70.70;;;;;;;;;;5097977;28;20918;-71
2021/12/09 10:15:49;;;;;;;177.40;74.30;;;;;;;;;;5112639;27;20469;-71
2021/12/09 10:18:33;;;;;;;173.53;69.80;;;;;;;;;;5117824;27;20698;-70
2021/12/09 10:21:00;;;;;;;173.83;70.40;;;;;;;;;;5118559;27;20446;-70
2021/12/09 10:23:30;;;;;;;174.80;67.83;;;;;;;;;;5118467;27;20537;-70
2021/12/09 10:26:21;;;;;;;173.57;71.07;;;;;;;;;;5098559;27;20442;-71
2021/12/09 10:28:52;;;;;;;183.10;72.80;;;;;;;;;;5095098;28;20872;-71
2021/12/09 10:31:20;;;;;;;169.30;71.80;;;;;;;;;;5097179;28;20877;-71
2021/12/09 10:34:14;;;;;;;168.27;73.93;;;;;;;;;;5097963;28;20535;-71
2021/12/09 10:36:43;;;;;;;170.03;74.70;;;;;;;;;;5099749;28;20452;-70
2021/12/09 10:39:24;;;;;;;160.17;67.83;;;;;;;;;;5096371;28;20448;-72
2021/12/09 10:41:53;;;;;;;166.97;69.27;;;;;;;;;;5096418;28;20454;-72
2021/12/09 10:44:33;;;;;;;167.60;65.93;;;;;;;;;;5095148;28;20471;-73
2021/12/09 10:47:12;;;;;;;168.90;67.90;;;;;;;;;;5094481;28;20452;-72
2021/12/09 10:49:53;;;;;;;165.77;70.10;;;;;;;;;;5094285;28;20544;-72
2021/12/09 10:52:22;;;;;;;169.97;73.10;;;;;;;;;;5094970;28;20550;-71
2021/12/09 10:54:49;;;;;;;178.60;75.22;;;;;;;;;;5091865;28;20491;-72
2021/12/09 10:57:27;;;;;;;166.00;67.23;;;;;;;;;;5096433;28;20209;-72
2021/12/09 10:59:55;;;;;;;171.07;73.77;;;;;;;;;;5096460;28;20456;-72
2021/12/09 11:02:55;;;;;;;183.70;73.93;;;;;;;;;;5095588;28;20460;-72
2021/12/09 11:05:22;;;;;;;135.67;64.43;;;;;;;;;;5088833;28;20464;-72
2021/12/09 11:07:50;;;;;;;135.43;64.33;;;;;;;;;;5096470;28;20459;-71
2021/12/09 11:10:19;;;;;;;156.60;65.93;;;;;;;;;;5096677;28;20456;-71
2021/12/09 11:12:55;;;;;;;144.48;69.07;;;;;;;;;;5095831;28;20485;-72
2021/12/09 11:15:24;;;;;;;148.17;67.70;;;;;;;;;;5088116;27;20225;-72
2021/12/09 11:17:53;;;;;;;147.07;69.23;;;;;;;;;;5114855;27;20745;-71
2021/12/09 11:20:41;;;;;;;142.20;70.00;;;;;;;;;;5117530;27;20465;-72
2021/12/09 11:23:23;;;;;;;133.00;63.90;;;;;;;;;;5117224;27;20740;-71
2021/12/09 11:26:00;;;;;;;167.30;76.57;;;;;;;;;;5076322;28;20460;-72
2021/12/09 11:28:28;;;;;;;158.43;71.90;;;;;;;;;;5075753;28;20444;-72
2021/12/09 11:31:07;;;;;;;140.57;69.10;;;;;;;;;;5094922;28;21043;-71
2021/12/09 11:33:42;;;;;;;132.77;67.70;;;;;;;;;;5097677;28;20475;-72
2021/12/09 11:36:26;;;;;;;124.97;59.90;;;;;;;;;;5115019;27;20822;-71
2021/12/09 11:39:09;;;;;;;166.73;76.27;;;;;;;;;;5082388;28;20547;-72
2021/12/09 11:41:38;;;;;;;151.20;71.57;;;;;;;;;;5090820;27;20901;-72
2021/12/09 11:44:08;;;;;;;113.67;57.33;;;;;;;;;;5095136;28;20452;-72
2021/12/09 11:46:36;;;;;;;129.63;64.40;;;;;;;;;;5094412;28;20458;-72
2021/12/09 11:49:07;;;;;;;118.73;62.70;;;;;;;;;;5092406;28;21041;-72
2021/12/09 11:51:34;;;;;;;123.50;63.87;;;;;;;;;;5095572;28;20476;-71
2021/12/09 11:54:02;;;;;;;125.30;63.67;;;;;;;;;;5095941;28;20498;-71
2021/12/09 11:56:40;;;;;;;147.80;69.20;;;;;;;;;;5095019;28;20456;-71
2021/12/09 11:59:38;;;;;;;145.27;65.40;;;;;;;;;;5093746;28;20771;-70
2021/12/09 12:11:18;;;;;;;132.70;63.37;;;;;;;;;;5094382;28;20496;-71
2021/12/09 12:13:51;;;;;;;136.57;64.57;;;;;;;;;;5094492;28;20514;-71
2021/12/09 12:16:52;;;;;;;131.43;64.00;;;;;;;;;;5100774;28;20518;-71
2021/12/09 12:19:42;;;;;;;147.17;73.80;;;;;;;;;;5077138;28;20977;-71
2021/12/09 12:22:39;;;;;;;138.20;67.67;;;;;;;;;;5088459;28;20452;-71
2021/12/09 12:25:23;;;;;;;142.40;69.53;;;;;;;;;;5099345;27;20458;-72
2021/12/09 12:28:01;;;;;;;151.97;68.67;;;;;;;;;;5102888;28;20530;-71
2021/12/09 12:33:52;;;;;;;138.03;64.03;;;;;;;;;;5096520;28;20769;-71
2021/12/09 12:37:05;;;;;;;154.77;69.17;;;;;;;;;;5098250;28;20463;-71
2021/12/09 12:40:11;;;;;;;150.97;69.63;;;;;;;;;;5078089;28;20467;-72
2021/12/09 12:42:50;;;;;;;160.97;65.60;;;;;;;;;;5094813;28;20463;-74
2021/12/09 12:51:26;;;;;;;149.47;64.50;;;;;;;;;;5093369;28;20455;-72
2021/12/09 12:53:58;;;;;;;145.03;66.30;;;;;;;;;;5097178;28;20571;-72
2021/12/09 12:56:34;;;;;;;141.67;64.77;;;;;;;;;;5091514;28;20864;-72
2021/12/09 12:59:33;;;;;;;140.30;66.10;;;;;;;;;;5096761;28;20925;-72
2021/12/09 13:05:19;;;;;;;193.87;76.70;;;;;;;;;;5075463;28;20446;-72
2021/12/09 13:08:24;;;;;;;165.77;69.30;;;;;;;;;;5095392;28;20547;-73
2021/12/09 13:14:16;;;;;;;190.03;76.17;;;;;;;;;;5083719;28;20468;-73
2021/12/09 13:17:08;;;;;;;182.33;79.17;;;;;;;;;;5097321;28;20478;-73
2021/12/09 13:22:40;;;;;;;172.83;78.07;;;;;;;;;;5092427;28;20458;-73
2021/12/09 13:25:22;;;;;;;163.43;72.03;;;;;;;;;;5097343;28;20475;-72
2021/12/09 13:27:58;;;;;;;173.33;74.20;;;;;;;;;;5096437;28;20808;-73
2021/12/09 13:36:25;;;;;;;137.60;60.90;;;;;;;;;;5086267;27;20471;-73
2021/12/09 13:47:28;;;;;;;170.20;72.60;;;;;;;;;;5097513;28;20446;-72
2021/12/09 13:50:00;;;;;;;165.33;74.20;;;;;;;;;;5096752;28;20502;-73
2021/12/09 13:55:14;;;;;;;174.83;70.30;;;;;;;;;;5097749;27;20596;-72
2021/12/09 13:57:56;;;;;;;170.40;73.97;;;;;;;;;;5097722;28;20447;-73
2021/12/09 14:00:48;;;;;;;193.33;79.20;;;;;;;;;;5096448;28;20480;-73
2021/12/09 14:05:49;;;;;;;165.13;72.57;;;;;;;;;;5169654;27;20280;-73
2021/12/09 14:08:26;;;;;;;175.27;75.10;;;;;;;;;;5143960;27;20445;-73
2021/12/09 14:11:03;;;;;;;166.33;70.03;;;;;;;;;;5151412;27;20540;-74
2021/12/09 14:13:37;;;;;;;184.00;78.33;;;;;;;;;;5151728;27;20459;-74
2021/12/09 14:16:13;;;;;;;172.77;76.77;;;;;;;;;;5151536;27;20452;-73
2021/12/09 14:19:57;;;;;;;161.47;69.23;;;;;;;;;;5143630;27;20525;-73
2021/12/09 14:21:55;;;;;;;168.80;74.43;;;;;;;;;;5151948;27;20445;-73
2021/12/09 14:24:29;;;;;;;167.17;70.60;;;;;;;;;;5147834;27;20473;-73
2021/12/09 14:26:58;;;;;;;155.27;76.07;;;;;;;;;;5144742;27;20532;-72
2021/12/09 14:29:26;;;;;;;172.60;75.57;;;;;;;;;;5134945;27;20450;-71
2021/12/09 14:31:59;;;;;;;198.10;81.80;;;;;;;;;;5132443;27;20469;-71
2021/12/09 14:34:29;;;;;;;178.27;78.57;;;;;;;;;;5135968;27;20867;-72
2021/12/09 14:37:13;;;;;;;180.10;76.67;;;;;;;;;;5148813;27;20883;-72
2021/12/09 14:39:52;;;;;;;183.97;73.90;;;;;;;;;;5145063;27;20485;-73
2021/12/09 14:42:24;;;;;;;155.40;73.83;;;;;;;;;;5147475;27;20493;-73
2021/12/09 14:44:58;;;;;;;192.73;77.17;;;;;;;;;;5143974;27;20502;-73
2021/12/09 14:47:46;;;;;;;142.43;62.17;;;;;;;;;;5146704;27;20529;-73
2021/12/09 14:50:38;;;;;;;175.20;75.73;;;;;;;;;;5146573;27;20716;-72
2021/12/09 14:53:29;;;;;;;164.03;73.90;;;;;;;;;;5123207;27;20477;-73
2021/12/09 14:58:41;;;;;;;177.00;76.40;;;;;;;;;;5134066;27;20465;-72
2021/12/09 15:01:33;;;;;;;;;;;;;;;;;;;;;
2021/12/09 15:04:15;;;;;;;167.10;71.90;;;;;;;;;;5131257;28;20473;-72
2021/12/09 15:07:33;;;;;;;;;;;;;;;;;;;;;
2021/12/09 15:10:10;;;;;;;161.67;69.53;;;;;;;;;;5137489;27;20426;-72
2021/12/09 15:12:40;;;;;;;186.00;80.77;;;;;;;;;;5148408;27;20465;-73
2021/12/09 15:15:22;;;;;;;169.37;74.37;;;;;;;;;;5148974;27;20442;-73
2021/12/09 15:18:02;;;;;;;168.47;69.87;;;;;;;;;;5138466;27;20458;-74
2021/12/09 15:20:57;;;;;;;170.97;73.63;;;;;;;;;;5132780;27;20434;-73
2021/12/09 15:26:29;;;;;;;167.33;71.27;;;;;;;;;;5121066;27;20580;-73
2021/12/09 15:29:10;;;;;;;192.83;84.13;;;;;;;;;;5131531;27;20564;-72